Time;durP1;ratioP1;P1;durP2;ratioP2;P2;SDS_P1;SDS_P2;PMS_P1;PMS_P2;Temp;Humidity;BMP_temperature;BMP_pressure;BME280_temperature;BME280_humidity;BME280_pressure;Samples;Min_cycle;Max_cycle;Signal;HPM_P1;HPM_P2
2021/01/15 00:00:37;;;;;;;107.82;86.65;;;;;;;-0.97;100.00;101318.00;10539026;28;20044;-72
2021/01/15 00:05:39;;;;;;;42.92;38.25;;;;;;;-0.97;100.00;101336.09;10539103;28;20044;-71
2021/01/15 00:10:40;;;;;;;32.03;28.92;;;;;;;-1.01;100.00;101335.19;10539412;28;20046;-71
2021/01/15 00:15:41;;;;;;;30.13;26.92;;;;;;;-1.10;100.00;101335.06;10539570;28;20356;-71
2021/01/15 00:20:42;;;;;;;16.45;14.52;;;;;;;-1.18;100.00;101328.91;10532026;28;20396;-71
2021/01/15 00:25:44;;;;;;;9.25;7.18;;;;;;;-1.30;100.00;101319.25;10497091;28;20438;-71
2021/01/15 00:30:45;;;;;;;7.82;5.20;;;;;;;-1.35;100.00;101336.41;10501557;28;20044;-71
2021/01/15 00:35:46;;;;;;;9.40;5.75;;;;;;;-1.41;100.00;101340.59;10505469;28;20044;-71
2021/01/15 00:40:56;;;;;;;10.65;6.55;;;;;;;-1.44;100.00;101343.13;10505534;28;20049;-71
2021/01/15 00:45:58;;;;;;;9.95;6.50;;;;;;;-1.46;100.00;101353.44;10505048;28;20064;-71
2021/01/15 00:51:07;;;;;;;10.32;7.47;;;;;;;-1.47;100.00;101354.28;10493866;28;20492;-72
2021/01/15 00:56:08;;;;;;;8.27;6.03;;;;;;;-1.51;100.00;101347.34;10496716;28;20036;-71
2021/01/15 01:01:18;;;;;;;8.27;5.95;;;;;;;-1.49;100.00;101361.13;10545920;28;20051;-71
2021/01/15 01:06:24;;;;;;;11.23;6.30;;;;;;;-1.54;100.00;101361.06;10545867;28;20032;-71
2021/01/15 01:11:25;;;;;;;8.32;6.00;;;;;;;-1.47;100.00;101382.72;10538801;28;20070;-71
2021/01/15 01:16:26;;;;;;;10.63;7.55;;;;;;;-1.51;100.00;101380.94;10490824;28;20039;-71
2021/01/15 01:21:28;;;;;;;10.52;6.43;;;;;;;-1.50;100.00;101384.34;10499599;28;20056;-71
2021/01/15 01:26:29;;;;;;;7.35;5.72;;;;;;;-1.54;100.00;101399.81;10502663;28;20044;-71
2021/01/15 01:31:30;;;;;;;8.77;5.95;;;;;;;-1.56;100.00;101400.63;10496093;28;20048;-72
2021/01/15 01:36:31;;;;;;;9.18;6.07;;;;;;;-1.67;100.00;101399.56;10503094;28;20047;-71
2021/01/15 01:41:33;;;;;;;9.85;6.50;;;;;;;-1.66;100.00;101406.47;10497233;28;20087;-71
2021/01/15 01:46:34;;;;;;;9.25;6.53;;;;;;;-1.62;100.00;101416.03;10476509;28;20542;-71
2021/01/15 01:51:35;;;;;;;8.55;6.85;;;;;;;-1.57;100.00;101438.50;10491747;28;20409;-72
2021/01/15 01:56:37;;;;;;;9.48;6.13;;;;;;;-1.53;100.00;101439.44;10516991;28;20054;-71
2021/01/15 02:01:38;;;;;;;10.00;6.03;;;;;;;-1.31;100.00;101471.72;10543926;28;20059;-71
2021/01/15 02:06:40;;;;;;;7.85;5.22;;;;;;;-1.44;100.00;101443.91;10543176;28;20036;-71
2021/01/15 02:12:23;;;;;;;8.82;6.30;;;;;;;-1.34;100.00;101469.94;10543436;28;20036;-71
2021/01/15 02:17:29;;;;;;;9.38;6.35;;;;;;;-1.27;100.00;101474.38;10410924;28;20061;-71
2021/01/15 02:22:52;;;;;;;8.07;5.97;;;;;;;-1.21;100.00;101484.81;10459255;28;20037;-71
2021/01/15 02:28:24;;;;;;;7.80;5.80;;;;;;;-1.20;100.00;101488.28;10491088;28;20411;-71
2021/01/15 02:33:57;;;;;;;8.45;6.25;;;;;;;-0.99;100.00;101513.63;10500033;28;20055;-71
2021/01/15 02:39:09;;;;;;;10.68;6.55;;;;;;;-1.09;100.00;101502.28;10485025;28;20053;-71
2021/01/15 02:44:12;;;;;;;9.02;6.57;;;;;;;-0.99;100.00;101513.63;10482538;28;20032;-71
2021/01/15 02:49:14;;;;;;;9.90;6.80;;;;;;;-0.93;100.00;101518.94;10500213;28;20094;-71
2021/01/15 02:54:15;;;;;;;13.90;6.93;;;;;;;-0.92;100.00;101534.44;10499355;28;20423;-71
2021/01/15 02:59:16;;;;;;;11.23;6.85;;;;;;;-0.83;100.00;101547.53;10500028;28;20044;-71
2021/01/15 03:04:29;;;;;;;9.35;6.97;;;;;;;-0.80;100.00;101550.19;10522179;28;20075;-71
2021/01/15 03:09:37;;;;;;;11.15;7.82;;;;;;;-0.70;100.00;101552.94;10533185;28;20048;-71
2021/01/15 03:14:38;;;;;;;10.55;6.88;;;;;;;-0.66;100.00;101559.88;10497725;28;20044;-71
2021/01/15 03:19:41;;;;;;;13.18;9.52;;;;;;;-0.66;100.00;101560.75;10498145;28;20040;-71
2021/01/15 03:25:09;;;;;;;13.63;9.00;;;;;;;-0.55;100.00;101585.09;10491062;28;20037;-71
2021/01/15 03:30:15;;;;;;;12.23;8.65;;;;;;;-0.60;100.00;101589.34;10493533;28;20059;-71
2021/01/15 03:35:23;;;;;;;12.90;8.75;;;;;;;-0.55;100.00;101598.03;10484148;28;20033;-71
2021/01/15 03:40:32;;;;;;;12.50;9.30;;;;;;;-0.43;100.00;101606.03;10456699;28;20590;-71
2021/01/15 03:45:33;;;;;;;13.88;8.95;;;;;;;-0.38;100.00;101622.50;10456789;28;20107;-71
2021/01/15 03:50:36;;;;;;;14.90;9.20;;;;;;;-0.42;100.00;101622.44;10478882;28;20052;-71
2021/01/15 03:55:37;;;;;;;14.95;10.23;;;;;;;-0.48;100.00;101609.34;10505351;28;20049;-71
2021/01/15 04:00:38;;;;;;;16.85;10.85;;;;;;;-0.33;100.00;101635.50;10498091;28;20093;-71
2021/01/15 04:05:41;;;;;;;15.07;10.82;;;;;;;-0.32;100.00;101639.84;10532292;28;20051;-71
2021/01/15 04:10:45;;;;;;;;;;;;;;;-0.21;100.00;101653.84;10521862;28;20049;-71
2021/01/15 04:15:46;;;;;;;17.20;10.55;;;;;;;-0.19;100.00;101659.91;10505712;28;20268;-71
2021/01/15 04:20:47;;;;;;;16.52;11.15;;;;;;;-0.11;100.00;101670.41;10506223;28;20380;-71
2021/01/15 04:25:48;;;;;;;15.25;10.90;;;;;;;-0.11;100.00;101666.09;10505490;28;20399;-71
2021/01/15 04:30:49;;;;;;;14.52;9.63;;;;;;;-0.07;100.00;101670.47;10503145;28;20048;-71
2021/01/15 04:35:50;;;;;;;13.60;10.38;;;;;;;0.05;100.00;101671.50;10505277;28;20055;-71
2021/01/15 04:40:58;;;;;;;15.77;10.95;;;;;;;0.13;100.00;101683.72;10504593;28;20051;-71
2021/01/15 04:46:03;;;;;;;15.13;10.15;;;;;;;0.05;100.00;101664.63;10504665;28;20049;-71
2021/01/15 04:51:14;;;;;;;12.75;9.82;;;;;;;0.10;100.00;101670.72;10504262;28;20052;-71
2021/01/15 04:56:16;;;;;;;13.98;10.27;;;;;;;0.16;100.00;101680.31;10509809;28;20484;-71
2021/01/15 05:01:17;;;;;;;13.63;10.35;;;;;;;0.17;100.00;101679.47;10501630;28;20037;-72
2021/01/15 05:06:20;;;;;;;16.33;10.95;;;;;;;0.18;100.00;101682.06;10488756;28;20051;-71
2021/01/15 05:11:24;;;;;;;15.85;10.52;;;;;;;0.20;100.00;101675.19;10502422;28;20457;-71
2021/01/15 05:16:27;;;;;;;14.90;10.38;;;;;;;0.26;100.00;101677.00;10496873;28;20522;-71
2021/01/15 05:21:29;;;;;;;16.85;11.63;;;;;;;0.30;100.00;101673.63;10496848;28;20499;-71
2021/01/15 05:26:33;;;;;;;16.05;11.60;;;;;;;0.27;100.00;101670.97;10502205;28;20427;-71
2021/01/15 05:31:52;;;;;;;16.65;11.70;;;;;;;0.28;100.00;101681.38;10502031;28;20098;-71
2021/01/15 05:36:54;;;;;;;16.92;12.68;;;;;;;0.29;100.00;101671.88;10499721;28;20048;-71
2021/01/15 05:42:02;;;;;;;18.85;12.40;;;;;;;0.34;100.00;101684.03;10502438;28;20037;-71
2021/01/15 05:47:03;;;;;;;18.10;12.68;;;;;;;0.34;100.00;101694.41;10503012;28;20392;-71
2021/01/15 05:52:07;;;;;;;16.98;12.40;;;;;;;0.36;100.00;101703.09;10500231;28;20044;-71
2021/01/15 05:57:08;;;;;;;18.15;12.57;;;;;;;0.31;100.00;101702.16;10506800;28;20090;-72
2021/01/15 06:02:11;;;;;;;19.30;13.50;;;;;;;0.30;100.00;101704.72;10506418;28;20036;-71
2021/01/15 06:07:12;;;;;;;22.30;15.30;;;;;;;0.24;100.00;101709.81;10506367;28;20040;-71
2021/01/15 06:12:18;;;;;;;22.02;15.80;;;;;;;0.24;100.00;101710.69;10501918;28;20048;-71
2021/01/15 06:17:20;;;;;;;20.00;14.60;;;;;;;0.24;100.00;101721.06;10501294;28;20518;-71
2021/01/15 06:22:29;;;;;;;24.70;17.00;;;;;;;0.21;100.00;101731.38;10500782;28;20040;-71
2021/01/15 06:27:38;;;;;;;23.65;15.75;;;;;;;0.48;100.00;101748.19;10463462;28;20041;-71
2021/01/15 06:32:41;;;;;;;24.48;16.02;;;;;;;0.25;100.00;101738.31;10500148;28;20107;-71
2021/01/15 06:37:43;;;;;;;27.00;18.70;;;;;;;0.27;100.00;101747.00;10500312;28;20123;-71
2021/01/15 06:42:46;;;;;;;25.15;18.27;;;;;;;0.25;100.00;101764.22;10500131;28;20479;-71
2021/01/15 06:47:53;;;;;;;28.92;18.75;;;;;;;0.23;100.00;101775.44;10500038;28;20048;-71
2021/01/15 06:53:15;;;;;;;27.15;18.67;;;;;;;0.20;100.00;101783.16;10498783;28;20048;-71
2021/01/15 06:58:39;;;;;;;33.25;22.98;;;;;;;0.21;100.00;101806.50;10532115;28;20051;-71
2021/01/15 07:03:55;;;;;;;29.25;19.55;;;;;;;0.17;100.00;101806.44;10530728;28;20473;-71
2021/01/15 07:09:06;;;;;;;43.10;27.67;;;;;;;0.28;100.00;101825.63;10513889;28;20479;-72
2021/01/15 07:14:07;;;;;;;29.63;20.55;;;;;;;0.19;100.00;101830.63;10494629;28;20044;-72
2021/01/15 07:19:20;;;;;;;32.58;21.50;;;;;;;0.17;100.00;101838.38;10492446;28;20500;-72
2021/01/15 07:24:28;;;;;;;28.33;20.40;;;;;;;0.19;100.00;101841.00;10481445;28;20048;-72
2021/01/15 07:29:33;;;;;;;31.00;20.33;;;;;;;0.18;100.00;101847.03;10524168;28;20044;-71
2021/01/15 07:34:37;;;;;;;29.38;21.02;;;;;;;0.23;100.00;101861.84;10515378;28;20071;-70
2021/01/15 07:40:02;;;;;;;41.70;28.07;;;;;;;0.13;100.00;101857.31;10496560;28;20052;-72
2021/01/15 07:45:05;;;;;;;33.13;23.42;;;;;;;0.15;100.00;101871.19;10495487;28;20477;-71
2021/01/15 07:50:07;;;;;;;26.10;17.95;;;;;;;0.12;100.00;101878.00;10495566;28;20480;-71
2021/01/15 07:55:09;;;;;;;30.02;20.08;;;;;;;0.07;100.00;101880.53;10474442;28;20048;-71
2021/01/15 08:00:24;;;;;;;29.75;20.42;;;;;;;0.09;100.00;101896.09;10494222;28;20052;-72
2021/01/15 08:05:25;;;;;;;29.25;19.80;;;;;;;0.15;100.00;101904.88;10498190;28;20037;-72
2021/01/15 08:10:26;;;;;;;29.60;20.88;;;;;;;0.16;100.00;101900.56;10488566;28;20045;-72
2021/01/15 08:15:32;;;;;;;31.08;21.45;;;;;;;0.20;100.00;101915.31;10490559;28;20076;-72
2021/01/15 08:20:33;;;;;;;35.80;25.13;;;;;;;0.23;100.00;101930.94;10493010;28;20052;-71
2021/01/15 08:25:34;;;;;;;29.98;21.40;;;;;;;0.31;100.00;101939.72;10502148;28;20388;-69
2021/01/15 08:30:35;;;;;;;30.27;22.17;;;;;;;0.26;100.00;101944.78;10520065;28;20057;-71
2021/01/15 08:35:37;;;;;;;28.20;21.35;;;;;;;1.00;100.00;101994.56;10499707;28;20060;-71
2021/01/15 08:40:38;;;;;;;31.60;22.02;;;;;;;0.57;100.00;101969.59;10503581;28;20056;-71
2021/01/15 08:45:40;;;;;;;31.95;22.88;;;;;;;0.51;100.00;101982.41;10494277;28;20152;-71
2021/01/15 08:50:41;;;;;;;31.73;23.08;;;;;;;0.52;100.00;101984.16;10513740;28;20506;-70
2021/01/15 08:55:44;;;;;;;35.25;23.95;;;;;;;0.48;100.00;101997.06;10517031;28;20041;-71
2021/01/15 09:00:45;;;;;;;31.48;22.48;;;;;;;0.81;100.00;102026.22;10521703;28;20451;-71
2021/01/15 09:05:47;;;;;;;32.83;23.38;;;;;;;0.93;100.00;102046.28;10496569;28;20043;-70
2021/01/15 09:10:48;;;;;;;37.10;23.40;;;;;;;1.19;100.00;102072.72;10506354;28;20048;-70
2021/01/15 09:15:51;;;;;;;33.83;22.27;;;;;;;0.80;100.00;102053.00;10505210;28;20040;-70
2021/01/15 09:20:52;;;;;;;39.47;27.40;;;;;;;0.72;100.00;102051.97;10503327;28;20063;-71
2021/01/15 09:25:54;;;;;;;31.77;21.17;;;;;;;0.79;100.00;102068.53;10494794;28;20416;-72
2021/01/15 09:30:55;;;;;;;38.13;25.40;;;;;;;0.68;100.00;102064.00;10499105;28;20045;-71
2021/01/15 09:35:57;;;;;;;31.80;21.08;;;;;;;0.75;100.00;102080.59;10498814;28;20028;-71
2021/01/15 09:41:06;;;;;;;34.33;22.45;;;;;;;0.67;100.00;102082.16;10505544;28;20152;-71
2021/01/15 09:46:08;;;;;;;40.63;28.60;;;;;;;0.67;100.00;102095.13;10500023;28;20061;-72
2021/01/15 09:51:10;;;;;;;48.03;30.67;;;;;;;0.73;100.00;102100.41;10513159;28;20040;-72
2021/01/15 09:56:22;;;;;;;32.78;22.27;;;;;;;0.77;100.00;102107.41;10504534;28;20043;-70
2021/01/15 10:01:24;;;;;;;33.95;22.83;;;;;;;0.89;100.00;102114.56;10500017;28;20056;-71
2021/01/15 10:06:31;;;;;;;33.17;21.85;;;;;;;0.79;100.00;102108.31;10508206;28;20041;-71
2021/01/15 10:11:35;;;;;;;33.17;22.80;;;;;;;0.92;100.00;102117.22;10500406;28;20060;-71
2021/01/15 10:16:37;;;;;;;28.40;19.23;;;;;;;1.12;100.00;102132.31;10498247;28;20044;-71
2021/01/15 10:21:39;;;;;;;31.25;22.15;;;;;;;1.03;100.00;102119.16;10498584;28;20566;-71
2021/01/15 10:26:41;;;;;;;30.02;20.35;;;;;;;1.05;100.00;102129.56;10483995;28;20045;-70
2021/01/15 10:31:54;;;;;;;29.83;19.75;;;;;;;1.13;100.00;102136.66;10497536;28;20044;-71
2021/01/15 10:36:56;;;;;;;28.40;19.80;;;;;;;1.33;100.00;102147.41;10501115;28;20472;-71
2021/01/15 10:41:57;;;;;;;31.77;21.88;;;;;;;1.40;100.00;102148.41;10499058;28;20068;-71
2021/01/15 10:46:59;;;;;;;29.63;20.52;;;;;;;1.53;100.00;102151.22;10500061;28;20060;-71
2021/01/15 10:52:01;;;;;;;28.33;21.17;;;;;;;1.44;100.00;102145.88;10500576;28;20110;-70
2021/01/15 10:57:02;;;;;;;26.38;19.08;;;;;;;1.57;100.00;102154.75;10503560;28;20053;-71
2021/01/15 11:02:03;;;;;;;25.50;18.27;;;;;;;1.68;100.00;102158.41;10499846;28;20037;-71
2021/01/15 11:07:05;;;;;;;27.75;19.08;;;;;;;1.78;100.00;102168.09;10499361;28;20072;-70
2021/01/15 11:12:07;;;;;;;34.70;22.70;;;;;;;2.20;100.00;102188.69;10498543;28;20060;-71
2021/01/15 11:17:08;;;;;;;29.08;20.10;;;;;;;2.69;100.00;102205.00;10498854;28;20048;-71
2021/01/15 11:22:10;;;;;;;29.20;21.02;;;;;;;3.23;100.00;102212.66;10498789;28;20400;-71
2021/01/15 11:27:11;;;;;;;29.75;22.50;;;;;;;3.44;100.00;102199.84;10497130;28;20094;-71
2021/01/15 11:32:12;;;;;;;34.42;24.92;;;;;;;3.24;100.00;102177.94;10498097;28;20040;-70
2021/01/15 11:37:17;;;;;;;34.20;24.35;;;;;;;3.21;100.00;102159.66;10498185;28;20067;-70
2021/01/15 11:42:18;;;;;;;33.40;23.17;;;;;;;3.10;100.00;102140.44;10496012;28;20056;-71
2021/01/15 11:47:19;;;;;;;30.20;22.48;;;;;;;3.30;100.00;102151.09;10497571;28;20044;-71
2021/01/15 11:52:20;;;;;;;27.75;20.00;;;;;;;3.31;100.00;102138.09;10497416;28;20051;-71
2021/01/15 11:57:21;;;;;;;24.65;18.48;;;;;;;3.11;100.00;102123.97;10522024;28;20052;-71
2021/01/15 12:02:22;;;;;;;29.55;20.40;;;;;;;3.11;100.00;102120.50;10525318;28;20052;-70
2021/01/15 12:07:24;;;;;;;24.35;18.40;;;;;;;2.95;100.00;102102.09;10539475;28;20109;-71
2021/01/15 12:12:25;;;;;;;23.73;18.45;;;;;;;3.54;100.00;102134.81;10537807;28;20044;-71
2021/01/15 12:17:26;;;;;;;28.48;20.48;;;;;;;4.18;100.00;102175.34;10519199;28;20040;-71
2021/01/15 12:22:27;;;;;;;25.27;18.70;;;;;;;4.49;99.21;102168.56;10495873;28;20109;-71
2021/01/15 12:27:28;;;;;;;26.42;20.20;;;;;;;3.85;99.63;102107.28;10487932;28;20051;-72
2021/01/15 12:32:29;;;;;;;30.98;21.80;;;;;;;3.48;100.00;102082.66;10502533;28;20044;-71
2021/01/15 12:37:30;;;;;;;28.20;21.17;;;;;;;3.24;100.00;102089.41;10510246;28;20551;-71
2021/01/15 12:42:31;;;;;;;28.77;19.25;;;;;;;3.22;100.00;102088.50;10502863;28;20052;-71
2021/01/15 12:47:33;;;;;;;26.90;19.73;;;;;;;3.18;100.00;102086.72;10510115;28;20054;-71
2021/01/15 12:52:34;;;;;;;25.67;18.85;;;;;;;3.13;100.00;102088.41;10502092;28;20040;-71
2021/01/15 12:57:39;;;;;;;28.52;20.10;;;;;;;3.19;100.00;102096.28;10503414;28;20040;-71
2021/01/15 13:02:41;;;;;;;23.08;17.00;;;;;;;2.91;100.00;102078.66;10492894;28;20055;-71
2021/01/15 13:07:43;;;;;;;23.70;17.23;;;;;;;2.89;100.00;102081.22;10493979;28;20044;-71
2021/01/15 13:12:45;;;;;;;27.48;18.63;;;;;;;2.95;100.00;102086.50;10512903;28;20047;-72
2021/01/15 13:17:54;;;;;;;24.23;16.48;;;;;;;2.88;100.00;102071.66;10493985;28;20049;-74
2021/01/15 13:23:01;;;;;;;17.23;11.93;;;;;;;2.74;100.00;102069.78;10497560;28;20130;-72
2021/01/15 13:28:04;;;;;;;16.05;10.82;;;;;;;2.72;98.60;102074.09;10500657;28;20036;-73
2021/01/15 13:33:08;;;;;;;14.95;10.38;;;;;;;2.68;96.25;102067.97;10525689;28;20052;-72
2021/01/15 13:38:10;;;;;;;15.88;10.85;;;;;;;2.90;95.55;102082.09;10503407;28;20045;-73
2021/01/15 13:43:11;;;;;;;22.00;15.02;;;;;;;2.45;95.43;102033.88;10502347;28;20361;-71
2021/01/15 13:48:13;;;;;;;24.65;16.38;;;;;;;2.44;96.04;102049.47;10523948;28;20052;-72
2021/01/15 13:53:21;;;;;;;22.88;16.15;;;;;;;2.27;100.00;102049.25;10493088;28;20053;-72
2021/01/15 13:58:23;;;;;;;23.98;15.40;;;;;;;2.14;100.00;102060.38;10496302;28;20048;-71
2021/01/15 14:03:25;;;;;;;24.58;16.25;;;;;;;1.81;100.00;102043.44;10505852;28;20044;-72
2021/01/15 14:08:26;;;;;;;23.48;16.23;;;;;;;1.66;100.00;102051.03;10514261;28;20051;-72
2021/01/15 14:13:27;;;;;;;33.97;22.48;;;;;;;1.67;100.00;102064.88;10515091;28;20094;-71
2021/01/15 14:18:28;;;;;;;25.45;16.33;;;;;;;1.58;100.00;102067.34;10498528;28;20508;-73
2021/01/15 14:23:29;;;;;;;21.88;13.88;;;;;;;1.54;100.00;102076.78;10501084;28;20041;-71
2021/01/15 14:28:30;;;;;;;21.83;14.80;;;;;;;1.56;100.00;102093.28;10503243;28;20066;-72
2021/01/15 14:33:32;;;;;;;22.25;15.75;;;;;;;1.44;100.00;102088.75;10523392;28;20036;-72
2021/01/15 14:38:33;;;;;;;20.90;14.68;;;;;;;1.47;100.00;102098.31;10542842;28;20078;-71
2021/01/15 14:43:34;;;;;;;20.42;14.65;;;;;;;1.42;100.00;102097.38;10532139;28;20406;-71
2021/01/15 14:48:36;;;;;;;37.40;25.15;;;;;;;1.34;100.00;102109.34;10499173;28;20404;-71
2021/01/15 14:53:38;;;;;;;21.58;15.85;;;;;;;1.26;100.00;102098.81;10478198;28;20063;-71
2021/01/15 14:58:39;;;;;;;22.08;15.00;;;;;;;1.36;100.00;102128.41;10498160;28;20054;-71
2021/01/15 15:03:40;;;;;;;20.70;14.93;;;;;;;1.13;100.00;102110.72;10516804;28;20042;-71
2021/01/15 15:08:42;;;;;;;21.20;16.15;;;;;;;1.13;100.00;102126.28;10503137;28;20044;-71
2021/01/15 15:13:43;;;;;;;21.60;15.52;;;;;;;1.08;100.00;102112.34;10498903;28;20036;-71
2021/01/15 15:18:45;;;;;;;21.05;14.68;;;;;;;1.06;100.00;102127.00;10497884;28;20048;-71
2021/01/15 15:23:46;;;;;;;23.55;16.48;;;;;;;1.16;100.00;102132.38;10496438;28;20488;-71
2021/01/15 15:28:49;;;;;;;27.10;17.85;;;;;;;0.88;100.00;102131.84;10496054;28;20393;-71
2021/01/15 15:33:51;;;;;;;25.63;16.83;;;;;;;0.85;100.00;102133.50;10497217;28;20044;-71
2021/01/15 15:38:53;;;;;;;23.52;15.32;;;;;;;0.82;100.00;102133.44;10498494;28;20506;-71
2021/01/15 15:43:54;;;;;;;22.70;15.68;;;;;;;0.76;100.00;102137.66;10497278;28;20051;-71
2021/01/15 15:48:55;;;;;;;25.23;16.13;;;;;;;0.63;100.00;102135.66;10498377;28;20103;-71
2021/01/15 15:53:56;;;;;;;21.50;15.85;;;;;;;0.68;100.00;102147.00;10497740;28;20094;-72
2021/01/15 15:58:57;;;;;;;24.63;15.73;;;;;;;0.78;100.00;102166.22;10534442;28;20059;-72
2021/01/15 16:03:58;;;;;;;24.17;17.02;;;;;;;0.69;100.00;102155.66;10539575;28;20040;-72
2021/01/15 16:08:59;;;;;;;20.35;14.38;;;;;;;0.75;100.00;102163.56;10540107;28;20044;-72
2021/01/15 16:14:01;;;;;;;21.98;15.00;;;;;;;0.70;100.00;102163.47;10539127;28;20451;-71
2021/01/15 16:19:02;;;;;;;23.73;15.25;;;;;;;0.82;100.00;102187.91;10514421;28;20048;-72
2021/01/15 16:24:04;;;;;;;23.73;16.38;;;;;;;0.53;100.00;102146.69;10497740;28;20059;-71
2021/01/15 16:29:07;;;;;;;22.00;15.63;;;;;;;0.77;100.00;102182.63;10496629;28;20041;-72
2021/01/15 16:34:08;;;;;;;21.98;15.45;;;;;;;0.71;100.00;102178.19;10495294;28;20044;-72
2021/01/15 16:39:09;;;;;;;23.80;16.33;;;;;;;0.62;100.00;102171.94;10481755;28;20048;-72
2021/01/15 16:44:10;;;;;;;23.75;17.38;;;;;;;0.61;100.00;102173.63;10491911;28;20044;-72
2021/01/15 16:49:11;;;;;;;24.17;16.73;;;;;;;0.60;100.00;102182.25;10479759;28;20060;-72
2021/01/15 16:54:13;;;;;;;28.65;20.40;;;;;;;0.64;100.00;102198.78;10462344;28;20037;-72
2021/01/15 16:59:14;;;;;;;22.08;16.58;;;;;;;0.54;100.00;102189.91;10480453;28;20056;-71
2021/01/15 17:04:16;;;;;;;27.33;20.02;;;;;;;0.64;100.00;102189.28;10479345;28;20037;-72
2021/01/15 17:09:18;;;;;;;22.08;16.00;;;;;;;0.67;100.00;102191.06;10487696;28;20087;-71
2021/01/15 17:14:20;;;;;;;25.25;17.50;;;;;;;0.48;100.00;102194.09;10500922;28;20043;-71
2021/01/15 17:19:22;;;;;;;24.90;18.50;;;;;;;0.47;100.00;102187.16;10499990;28;20036;-71
2021/01/15 17:24:23;;;;;;;26.73;18.70;;;;;;;0.61;100.00;102202.16;10496859;28;20567;-71
2021/01/15 17:29:24;;;;;;;24.25;17.67;;;;;;;0.40;100.00;102203.41;10500071;28;20051;-71
2021/01/15 17:34:25;;;;;;;22.10;15.27;;;;;;;0.37;100.00;102206.81;10491528;28;20055;-71
2021/01/15 17:39:26;;;;;;;30.58;19.88;;;;;;;0.43;100.00;102208.66;10500689;28;20166;-71
2021/01/15 17:44:28;;;;;;;27.05;17.63;;;;;;;0.51;100.00;102233.91;10500655;28;20040;-71
2021/01/15 17:49:29;;;;;;;24.60;16.80;;;;;;;0.43;100.00;102230.25;10497896;28;20407;-71
2021/01/15 17:54:30;;;;;;;23.75;16.38;;;;;;;0.45;100.00;102235.50;10479750;28;20127;-71
2021/01/15 17:59:32;;;;;;;22.48;14.95;;;;;;;0.41;100.00;102237.16;10480754;28;20040;-71
2021/01/15 18:04:33;;;;;;;21.83;15.50;;;;;;;0.33;100.00;102238.69;10527167;28;20036;-71
2021/01/15 18:09:34;;;;;;;22.65;15.80;;;;;;;0.31;100.00;102241.25;10534219;28;20044;-71
2021/01/15 18:14:35;;;;;;;19.45;15.07;;;;;;;0.33;100.00;102252.53;10497247;28;20044;-71
2021/01/15 18:19:36;;;;;;;20.10;14.30;;;;;;;0.24;100.00;102249.72;10494193;28;20763;-71
2021/01/15 18:24:37;;;;;;;22.25;15.43;;;;;;;0.28;100.00;102250.66;10499385;28;20044;-71
2021/01/15 18:29:38;;;;;;;21.98;15.25;;;;;;;0.29;100.00;102258.47;10481767;28;20040;-71
2021/01/15 18:34:39;;;;;;;18.23;13.48;;;;;;;0.26;100.00;102266.16;10494454;28;20393;-71
2021/01/15 18:39:41;;;;;;;24.80;16.70;;;;;;;0.23;100.00;102273.88;10499909;28;20130;-71
2021/01/15 18:44:43;;;;;;;25.05;16.67;;;;;;;0.33;100.00;102278.47;10497669;28;20056;-71
2021/01/15 18:49:44;;;;;;;26.02;18.08;;;;;;;0.32;100.00;102270.63;10492247;28;20076;-71
2021/01/15 18:54:46;;;;;;;29.70;19.17;;;;;;;0.34;100.00;102276.72;10493428;28;20052;-71
2021/01/15 18:59:47;;;;;;;31.85;19.35;;;;;;;0.31;100.00;102280.13;10499214;28;20048;-71
2021/01/15 19:04:49;;;;;;;44.75;25.65;;;;;;;0.18;100.00;102275.47;10494206;28;20048;-71
2021/01/15 19:09:50;;;;;;;32.35;20.05;;;;;;;0.09;100.00;102266.56;10457373;28;20045;-71
2021/01/15 19:14:51;;;;;;;23.27;15.57;;;;;;;0.32;100.00;102286.19;10492673;28;20040;-71
2021/01/15 19:19:52;;;;;;;21.20;15.55;;;;;;;0.25;100.00;102287.72;10498253;28;20071;-71
2021/01/15 19:24:53;;;;;;;19.23;14.35;;;;;;;0.16;100.00;102274.56;10487396;28;20037;-72
2021/01/15 19:29:54;;;;;;;21.10;15.90;;;;;;;0.12;100.00;102277.03;10496049;28;20083;-71
2021/01/15 19:34:55;;;;;;;18.90;14.25;;;;;;;0.26;100.00;102291.19;10493568;28;20102;-71
2021/01/15 19:39:57;;;;;;;21.70;16.63;;;;;;;0.19;100.00;102284.13;10497173;28;20499;-71
2021/01/15 19:44:58;;;;;;;21.23;15.02;;;;;;;0.16;100.00;102294.44;10494181;28;20064;-71
2021/01/15 19:49:59;;;;;;;19.05;13.85;;;;;;;0.07;100.00;102294.19;10495895;28;20048;-71
2021/01/15 19:55:00;;;;;;;22.42;14.68;;;;;;;0.11;100.00;102296.00;10493830;28;20392;-71
2021/01/15 20:00:04;;;;;;;20.13;14.82;;;;;;;0.22;100.00;102317.88;10493498;28;20040;-71
2021/01/15 20:05:08;;;;;;;18.20;13.23;;;;;;;0.22;100.00;102317.88;10496990;28;20053;-71
2021/01/15 20:10:09;;;;;;;21.30;15.80;;;;;;;0.15;100.00;102323.75;10496993;28;20041;-71
2021/01/15 20:15:10;;;;;;;22.42;15.88;;;;;;;0.26;100.00;102332.66;10496606;28;20446;-71
2021/01/15 20:20:15;;;;;;;20.17;14.48;;;;;;;0.16;100.00;102334.16;10495318;28;20040;-73
2021/01/15 20:25:16;;;;;;;24.27;15.40;;;;;;;0.08;100.00;102330.50;10484169;28;20101;-72
2021/01/15 20:30:18;;;;;;;21.38;14.18;;;;;;;0.11;100.00;102343.53;10488017;28;20047;-71
2021/01/15 20:35:20;;;;;;;19.02;14.02;;;;;;;0.12;100.00;102336.63;10453153;28;20045;-72
2021/01/15 20:40:22;;;;;;;19.98;14.63;;;;;;;0.16;100.00;102349.72;10454290;28;20056;-72
2021/01/15 20:45:27;;;;;;;20.70;13.07;;;;;;;0.06;100.00;102334.75;10473203;28;20061;-71
2021/01/15 20:50:30;;;;;;;20.17;13.95;;;;;;;0.09;100.00;102341.72;10504269;28;20503;-72
2021/01/15 20:55:31;;;;;;;18.92;13.30;;;;;;;0.08;100.00;102340.00;10502962;28;20041;-71
2021/01/15 21:00:32;;;;;;;17.30;12.40;;;;;;;0.00;100.00;102335.47;10503541;28;20480;-72
2021/01/15 21:05:39;;;;;;;20.25;14.07;;;;;;;0.18;100.00;102358.38;10538418;28;20044;-71
2021/01/15 21:10:41;;;;;;;17.75;13.57;;;;;;;0.23;100.00;102361.13;10500056;28;20492;-72
2021/01/15 21:15:42;;;;;;;21.58;15.07;;;;;;;0.09;100.00;102334.81;10502599;28;20051;-72
2021/01/15 21:20:43;;;;;;;17.55;13.70;;;;;;;0.11;100.00;102346.13;10500483;28;20040;-71
2021/01/15 21:25:44;;;;;;;19.83;13.85;;;;;;;0.16;100.00;102349.72;10502877;28;20373;-71
2021/01/15 21:30:45;;;;;;;21.20;14.68;;;;;;;0.26;100.00;102363.75;10501291;28;20037;-71
2021/01/15 21:35:46;;;;;;;16.40;12.38;;;;;;;0.15;100.00;102344.50;10502369;28;20048;-72
2021/01/15 21:40:47;;;;;;;16.45;11.80;;;;;;;0.16;100.00;102339.34;10501341;28;20053;-72
2021/01/15 21:45:49;;;;;;;17.92;11.93;;;;;;;0.17;100.00;102354.03;10490920;28;20105;-72
2021/01/15 21:50:50;;;;;;;19.08;13.65;;;;;;;0.18;100.00;102355.78;10473160;28;20039;-71
2021/01/15 21:55:51;;;;;;;16.70;11.90;;;;;;;0.28;100.00;102359.50;10501526;28;20044;-71
2021/01/15 22:00:52;;;;;;;18.38;12.27;;;;;;;0.24;100.00;102353.38;10501047;28;20044;-72
2021/01/15 22:05:53;;;;;;;16.85;12.00;;;;;;;0.08;100.00;102345.16;10537634;28;20132;-71
2021/01/15 22:10:54;;;;;;;19.05;11.88;;;;;;;0.16;100.00;102349.72;10539007;28;20349;-72
2021/01/15 22:15:56;;;;;;;17.77;12.13;;;;;;;0.14;100.00;102348.78;10472374;28;20037;-71
2021/01/15 22:20:57;;;;;;;17.75;13.35;;;;;;;0.11;100.00;102340.94;10476197;28;20498;-71
2021/01/15 22:25:59;;;;;;;18.08;13.60;;;;;;;0.15;100.00;102345.38;10493737;28;20119;-72
2021/01/15 22:31:00;;;;;;;18.90;13.05;;;;;;;0.24;100.00;102345.63;10496633;28;20392;-71
2021/01/15 22:36:02;;;;;;;18.15;13.38;;;;;;;0.19;100.00;102343.72;10497891;28;20063;-72
2021/01/15 22:41:06;;;;;;;17.58;13.52;;;;;;;0.13;100.00;102339.25;10503764;28;20048;-71